Bronaugh, MO (64728)

9:24 PM CDT on August 31, 2016 (GMT -0500)
Nevada | | Change Station

Elev 863 ft 37.82 °N, 94.33 °W | Updated 0 second ago

Rain
Rain
72.7 °F
Feels Like 72.7 °F
N
1.8
Wind Variable Wind from SE
Gusts 2.2 mph

Today
High -- | Low -- °F
--% Chance of Precip.
Yesterday
High -- | Low -- °F
Precip. -- in
Pressure 30.05 in
Visibility 10.0 miles
Clouds Scattered Clouds 1800 ft
Dew Point 71 °F
Humidity 93%
Rainfall in
Snow Depth Not available.
6:47 AM 7:47 PM
Waning Crescent, 0% visible
METAR KPTS 010215Z AUTO 02004KT 10SM SCT018 25/25 A3005 RMK AO2 T02450245
Pressure 30.05 in
Visibility 10.0 miles
Clouds Scattered Clouds 1800 ft
Dew Point 71 °F
Humidity 93%
Rainfall in
Snow Depth Not available.
6:47 AM 7:47 PM
Waning Crescent, 0% visible
METAR KPTS 010215Z AUTO 02004KT 10SM SCT018 25/25 A3005 RMK AO2 T02450245

10-Day Weather Forecast

Almanac

Astronomy

Aug. 31, 2016 Rise Set
Actual Time
Civil Twilight
Nautical Twilight
Astronomical Twilight
Moon
Length of Visible Light
Length of Day
Tomorrow will be .
, % of the Moon is Illuminated

Today's Extremes

State Highs State Lows

Community

WunderPhotos

Upload Photos

1,936,278 photos uploaded!

WunderBlog® & News

Nearby

Air Quality

  Air Quality AQ Index Pollutant
Not available.

Snow Depth

Station Depth Elevation

Earthquake Activity

City Distance Mag. Time & Date
Minimum magnitude displayed is 2.5.

Coastal Water Temperatures

Place Temperature

Stations

Nearby Weather Stations

Station Location Temp. Windchill Dew Point Humidity Wind Precip. Elev Updated Type
                   

Watches & Warnings

There are currently no watches in effect.